createdAt,value
2023-04-22T00:00:46.147Z,2.45
2023-04-22T00:03:14.245Z,2.67
2023-04-22T00:05:48.232Z,3.10
2023-04-22T00:08:15.756Z,2.35
2023-04-22T00:10:43.021Z,2.50
2023-04-22T00:13:17.134Z,2.35
2023-04-22T00:15:44.282Z,2.35
2023-04-22T00:18:20.283Z,2.65
2023-04-22T00:20:47.709Z,2.80
2023-04-22T00:23:14.864Z,2.55
2023-04-22T00:25:48.306Z,2.25
2023-04-22T00:28:15.558Z,2.78
2023-04-22T00:30:42.668Z,2.30
2023-04-22T00:33:17.306Z,2.50
2023-04-22T00:35:45.782Z,2.38
2023-04-22T00:38:12.929Z,2.83
2023-04-22T00:40:47.260Z,2.70
2023-04-22T00:43:14.512Z,2.65
2023-04-22T00:45:49.412Z,2.70
2023-04-22T00:48:23.141Z,2.78
2023-04-22T00:50:57.266Z,2.78
2023-04-22T00:53:31.078Z,2.75
2023-04-22T00:56:05.480Z,2.75
2023-04-22T00:58:32.778Z,2.67
2023-04-22T01:00:59.944Z,2.50
2023-04-22T01:03:37.518Z,2.70
2023-04-22T01:06:04.885Z,2.20
2023-04-22T01:08:32.011Z,2.30
2023-04-22T01:11:06.192Z,2.50
2023-04-22T01:13:33.535Z,2.85
2023-04-22T01:16:08.398Z,2.63
2023-04-22T01:18:38.606Z,3.00
2023-04-22T01:21:07.127Z,2.95
2023-04-22T01:23:41.170Z,2.55
2023-04-22T01:26:08.392Z,3.20
2023-04-22T01:28:42.107Z,2.80
2023-04-22T01:31:09.818Z,2.80
2023-04-22T01:36:12.893Z,2.60
2023-04-22T01:38:40.798Z,2.50
2023-04-22T01:41:15.155Z,2.80
2023-04-22T01:43:42.926Z,2.67
2023-04-22T01:46:25.479Z,2.40
2023-04-22T01:48:59.217Z,2.75
2023-04-22T01:51:33.180Z,3.17
2023-04-22T01:54:07.087Z,2.60
2023-04-22T01:56:41.189Z,2.25
2023-04-22T01:59:15.132Z,3.08
2023-04-22T02:01:42.435Z,2.97
2023-04-22T02:04:09.657Z,3.00
2023-04-22T02:06:43.094Z,2.58
2023-04-22T02:09:17.270Z,2.35
2023-04-22T02:11:44.359Z,2.85
2023-04-22T02:14:11.703Z,3.08
2023-04-22T02:16:45.193Z,3.00
2023-04-22T02:19:12.382Z,2.72
2023-04-22T02:21:46.145Z,3.00
2023-04-22T02:24:13.436Z,2.60
2023-04-22T02:26:41.531Z,2.95
2023-04-22T02:29:15.308Z,2.83
2023-04-22T02:31:42.731Z,2.63
2023-04-22T02:34:09.912Z,2.95
2023-04-22T02:36:43.271Z,3.00
2023-04-22T02:39:11.621Z,2.60
2023-04-22T02:41:45.345Z,3.00
2023-04-22T02:44:12.568Z,2.90
2023-04-22T02:46:52.322Z,3.05
2023-04-22T02:49:19.519Z,2.97
2023-04-22T02:51:46.656Z,3.47
2023-04-22T02:54:20.188Z,3.33
2023-04-22T02:56:54.289Z,2.88
2023-04-22T02:59:28.177Z,3.30
2023-04-22T03:02:03.855Z,3.15
2023-04-22T03:04:40.226Z,3.28
2023-04-22T03:07:07.435Z,2.47
2023-04-22T03:09:41.409Z,3.47
2023-04-22T03:12:09.189Z,3.10
2023-04-22T03:14:36.429Z,2.97
2023-04-22T03:17:10.337Z,2.72
2023-04-22T03:19:37.605Z,2.90
2023-04-22T03:22:11.475Z,3.05
2023-04-22T03:24:38.961Z,3.03
2023-04-22T03:27:06.382Z,3.22
2023-04-22T03:29:40.747Z,2.78
2023-04-22T03:32:08.230Z,3.13
2023-04-22T03:34:37.263Z,3.00
2023-04-22T03:37:17.181Z,3.13
2023-04-22T03:39:44.300Z,2.90
2023-04-22T03:42:25.353Z,3.03
2023-04-22T03:44:52.964Z,2.75
2023-04-22T03:50:00.190Z,2.70
2023-04-22T03:52:27.489Z,3.30
2023-04-22T03:55:01.428Z,3.03
2023-04-22T03:57:28.688Z,3.05
2023-04-22T03:59:55.857Z,3.30
2023-04-22T04:02:29.293Z,3.13
2023-04-22T04:04:56.751Z,3.20
2023-04-22T04:09:57.503Z,3.33
2023-04-22T04:12:24.602Z,3.40
2023-04-22T04:14:58.308Z,3.97
2023-04-22T04:17:26.025Z,3.90
2023-04-22T04:20:00.280Z,2.90
2023-04-22T04:22:29.216Z,2.30
2023-04-22T04:24:56.328Z,2.85
2023-04-22T04:27:31.337Z,2.60
2023-04-22T04:29:58.625Z,2.63
2023-04-22T04:32:25.787Z,2.88
2023-04-22T04:34:59.356Z,2.67
2023-04-22T04:37:27.250Z,2.70
2023-04-22T04:39:54.333Z,2.58
2023-04-22T04:42:31.280Z,2.50
2023-04-22T04:44:58.477Z,2.58
2023-04-22T04:47:40.355Z,2.47
2023-04-22T04:50:07.839Z,2.90
2023-04-22T04:52:41.341Z,2.28
2023-04-22T04:55:08.667Z,2.22
2023-04-22T04:57:38.290Z,2.35
2023-04-22T05:00:13.282Z,2.42
2023-04-22T05:02:41.358Z,2.58
2023-04-22T05:05:16.333Z,2.72
2023-04-22T05:07:43.553Z,2.80
2023-04-22T05:10:11.240Z,2.45
2023-04-22T05:15:12.619Z,2.42
2023-04-22T05:17:47.391Z,2.20
2023-04-22T05:20:14.699Z,2.83
2023-04-22T05:22:43.239Z,2.33
2023-04-22T05:25:17.261Z,2.40
2023-04-22T05:27:44.460Z,2.85
2023-04-22T05:30:11.630Z,2.30
2023-04-22T05:32:45.364Z,2.38
2023-04-22T05:35:12.562Z,2.40
2023-04-22T05:37:46.471Z,2.40
2023-04-22T05:40:13.672Z,2.60
2023-04-22T05:42:40.804Z,2.95
2023-04-22T05:45:15.341Z,2.65
2023-04-22T05:48:02.192Z,2.70
2023-04-22T05:50:36.385Z,2.75
2023-04-22T05:53:03.690Z,2.72
2023-04-22T05:55:30.809Z,2.80
2023-04-22T05:58:04.533Z,2.83
2023-04-22T06:00:31.783Z,2.40
2023-04-22T06:03:05.535Z,2.90
2023-04-22T06:05:32.933Z,2.85
2023-04-22T06:08:00.177Z,2.88
2023-04-22T06:10:34.307Z,2.80
2023-04-22T06:13:01.549Z,2.70
2023-04-22T06:15:35.395Z,2.80
2023-04-22T06:18:02.850Z,2.67
2023-04-22T06:20:32.670Z,2.50
2023-04-22T06:23:06.255Z,2.58
2023-04-22T06:25:33.693Z,3.15
2023-04-22T06:28:07.353Z,3.00
2023-04-22T06:30:34.594Z,2.90
2023-04-22T06:33:01.778Z,2.97
2023-04-22T06:35:35.332Z,2.63
2023-04-22T06:38:02.482Z,2.53
2023-04-22T06:40:29.662Z,2.70
2023-04-22T06:43:03.224Z,3.08
2023-04-22T06:45:30.514Z,3.00
2023-04-22T06:48:10.444Z,3.42
2023-04-22T06:50:37.699Z,3.03
2023-04-22T06:53:04.801Z,3.13
2023-04-22T06:55:38.248Z,2.90
2023-04-22T06:58:05.674Z,3.10
2023-04-22T07:00:39.459Z,3.30
2023-04-22T07:03:06.796Z,3.20
2023-04-22T07:05:34.010Z,2.70
2023-04-22T07:08:07.372Z,3.08
2023-04-22T07:10:34.558Z,2.90
2023-04-22T07:13:01.729Z,2.55
2023-04-22T07:15:35.375Z,2.65
2023-04-22T07:18:02.832Z,2.92
2023-04-22T07:20:36.355Z,2.80
2023-04-22T07:23:03.528Z,2.55
2023-04-22T07:25:30.851Z,2.58
2023-04-22T07:28:04.242Z,2.45
2023-04-22T07:30:31.613Z,2.50
2023-04-22T07:33:05.387Z,2.58
2023-04-22T07:35:32.675Z,2.45
2023-04-22T07:37:59.904Z,2.40
2023-04-22T07:40:33.309Z,2.60
2023-04-22T07:43:01.294Z,2.50
2023-04-22T07:45:35.337Z,2.70
2023-04-22T07:48:09.248Z,2.50
2023-04-22T07:50:43.260Z,2.50
2023-04-22T07:53:17.353Z,2.25
2023-04-22T07:55:44.631Z,2.53
2023-04-22T07:58:11.792Z,2.30
2023-04-22T08:00:45.328Z,2.50
2023-04-22T08:03:12.708Z,2.40
2023-04-22T08:05:46.324Z,2.47
2023-04-22T08:08:13.583Z,2.70
2023-04-22T08:10:40.760Z,2.35
2023-04-22T08:13:15.329Z,2.50
2023-04-22T08:15:43.715Z,2.60
2023-04-22T08:18:10.917Z,2.65
2023-04-22T08:20:44.313Z,2.25
2023-04-22T08:23:12.086Z,2.30
2023-04-22T08:25:39.226Z,2.20
2023-04-22T08:28:13.299Z,2.38
2023-04-22T08:30:40.895Z,2.25
2023-04-22T08:35:41.897Z,2.03
2023-04-22T08:40:43.383Z,2.30
2023-04-22T08:43:10.597Z,2.10
2023-04-22T08:45:47.330Z,2.47
2023-04-22T08:48:34.261Z,2.17
2023-04-22T08:51:08.357Z,2.20
2023-04-22T08:53:35.629Z,2.10
2023-04-22T08:56:09.516Z,2.08
2023-04-22T08:58:37.058Z,2.20
2023-04-22T09:03:38.481Z,2.20
2023-04-22T09:06:05.903Z,1.90
2023-04-22T09:08:33.521Z,2.30
2023-04-22T09:11:07.292Z,2.13
2023-04-22T09:13:34.712Z,2.00
2023-04-22T09:16:08.351Z,2.28
2023-04-22T09:18:45.941Z,2.15
2023-04-22T09:21:19.291Z,2.10
2023-04-22T09:23:57.239Z,1.80
2023-04-22T09:26:26.317Z,1.95
2023-04-22T09:29:07.287Z,2.25
2023-04-22T09:31:34.769Z,2.00
2023-04-22T09:36:36.292Z,1.90
2023-04-22T09:39:04.986Z,2.15
2023-04-22T09:41:39.314Z,2.20
2023-04-22T09:44:09.789Z,2.13
2023-04-22T09:46:43.343Z,1.77
2023-04-22T09:49:17.669Z,2.08
2023-04-22T09:51:51.409Z,1.83
2023-04-22T09:54:18.535Z,1.60
2023-04-22T09:56:55.444Z,2.10
2023-04-22T09:59:23.638Z,1.65
2023-04-22T10:01:52.693Z,1.40
2023-04-22T10:04:28.454Z,1.80
2023-04-22T10:06:57.020Z,1.70
2023-04-22T10:09:32.476Z,1.92
2023-04-22T10:11:59.730Z,1.90
2023-04-22T10:14:27.105Z,1.77
2023-04-22T10:17:09.403Z,1.45
2023-04-22T10:19:36.941Z,1.70
2023-04-22T10:24:38.647Z,1.30
2023-04-22T10:27:13.343Z,1.40
2023-04-22T10:29:42.558Z,1.70
2023-04-22T10:32:26.649Z,1.67
2023-04-22T10:35:10.464Z,1.58
2023-04-22T10:37:46.364Z,1.92
2023-04-22T10:40:17.529Z,1.35
2023-04-22T10:42:56.547Z,1.38
2023-04-22T10:45:25.549Z,1.50
2023-04-22T10:48:06.458Z,1.50
2023-04-22T10:50:33.715Z,1.30
2023-04-22T10:53:04.645Z,1.65
2023-04-22T10:55:58.366Z,1.23
2023-04-22T10:58:25.756Z,1.40
2023-04-22T11:03:36.639Z,1.17
2023-04-22T11:08:48.249Z,1.45
2023-04-22T11:11:17.334Z,1.30
2023-04-22T11:13:52.374Z,1.08
2023-04-22T11:16:22.770Z,1.73
2023-04-22T11:18:57.595Z,1.55
2023-04-22T11:21:24.829Z,1.35
2023-04-22T11:23:52.956Z,1.30
2023-04-22T11:26:26.357Z,1.58
2023-04-22T11:29:00.284Z,1.15
2023-04-22T11:31:34.589Z,1.30
2023-04-22T11:34:01.786Z,1.40
2023-04-22T11:36:28.965Z,1.30
2023-04-22T11:39:03.463Z,1.48
2023-04-22T11:41:38.312Z,1.20
2023-04-22T11:44:05.695Z,1.50
2023-04-22T11:49:19.951Z,1.63
2023-04-22T11:52:03.365Z,1.50
2023-04-22T11:54:31.550Z,2.20
2023-04-22T11:56:58.677Z,1.90
2023-04-22T11:59:32.494Z,1.83
2023-04-22T12:01:59.746Z,1.60
2023-04-22T12:04:33.384Z,1.60
2023-04-22T12:07:00.610Z,1.67
2023-04-22T12:09:34.484Z,1.90
2023-04-22T12:12:03.682Z,2.15
2023-04-22T12:14:41.365Z,1.60
2023-04-22T12:17:18.293Z,1.50
2023-04-22T12:19:48.294Z,1.75
2023-04-22T12:22:35.483Z,1.85
2023-04-22T12:25:03.339Z,1.92
2023-04-22T12:27:30.625Z,1.80
2023-04-22T12:30:04.522Z,1.60
2023-04-22T12:32:31.733Z,1.50
2023-04-22T12:35:05.613Z,1.80
2023-04-22T12:37:32.915Z,2.10
2023-04-22T12:40:00.065Z,2.28
2023-04-22T12:42:33.433Z,2.53
2023-04-22T12:45:00.634Z,2.25
2023-04-22T12:47:34.544Z,2.78
2023-04-22T12:50:08.483Z,2.25
2023-04-22T12:52:43.468Z,2.28
2023-04-22T12:55:10.885Z,2.10
2023-04-22T13:00:13.414Z,2.30
2023-04-22T13:02:41.950Z,2.17
2023-04-22T13:05:17.441Z,2.72
2023-04-22T13:08:05.745Z,2.10
2023-04-22T13:10:40.440Z,2.25
2023-04-22T13:15:45.477Z,2.45
2023-04-22T13:18:12.679Z,3.05
2023-04-22T13:20:48.558Z,3.03
2023-04-22T13:23:17.040Z,2.50
2023-04-22T13:25:44.570Z,2.67
2023-04-22T13:28:18.653Z,2.80
2023-04-22T13:30:45.883Z,3.05
2023-04-22T13:33:13.051Z,2.92
2023-04-22T13:35:47.560Z,2.80
2023-04-22T13:38:42.357Z,2.90
2023-04-22T13:41:16.468Z,2.60
2023-04-22T13:43:43.708Z,2.97
2023-04-22T13:46:10.892Z,3.25
2023-04-22T13:48:44.458Z,2.95
2023-04-22T13:51:11.724Z,2.72
2023-04-22T13:53:38.904Z,2.85
2023-04-22T13:56:13.452Z,3.05
2023-04-22T13:58:42.414Z,3.50
2023-04-22T14:01:16.745Z,3.20
2023-04-22T14:03:44.456Z,3.13
2023-04-22T14:06:11.721Z,3.20
2023-04-22T14:08:46.551Z,3.05
2023-04-22T14:11:13.836Z,3.17
2023-04-22T14:13:47.683Z,3.42
2023-04-22T14:16:15.206Z,3.33
2023-04-22T14:18:56.535Z,3.40
2023-04-22T14:21:37.347Z,3.40
2023-04-22T14:24:11.565Z,3.63
2023-04-22T14:26:38.661Z,3.33
2023-04-22T14:29:06.185Z,3.25
2023-04-22T14:31:39.568Z,3.20
2023-04-22T14:34:06.814Z,3.10
2023-04-22T14:36:40.483Z,3.70
2023-04-22T14:39:07.684Z,3.67
2023-04-22T14:41:34.790Z,3.58
2023-04-22T14:44:08.653Z,2.92
2023-04-22T14:46:36.101Z,3.38
2023-04-22T14:51:43.654Z,3.70
2023-04-22T14:54:17.561Z,3.47
2023-04-22T14:56:44.816Z,3.35
2023-04-22T14:59:18.581Z,3.35
2023-04-22T15:01:46.014Z,3.35
2023-04-22T15:06:48.521Z,3.47
2023-04-22T15:09:15.691Z,3.88
2023-04-22T15:11:49.447Z,3.90
2023-04-22T15:14:17.299Z,3.78
2023-04-22T15:16:51.458Z,3.85
2023-04-22T15:19:18.657Z,3.67
2023-04-22T15:21:53.472Z,4.03
2023-04-22T15:24:21.248Z,3.88
2023-04-22T15:26:48.928Z,3.67
2023-04-22T15:29:22.464Z,3.92
2023-04-22T15:31:49.958Z,3.78
2023-04-22T15:34:24.713Z,3.60
2023-04-22T15:36:51.874Z,3.80
2023-04-22T15:39:19.044Z,3.95
2023-04-22T15:41:53.470Z,3.92
2023-04-22T15:44:20.561Z,3.92
2023-04-22T15:47:01.630Z,3.95
2023-04-22T15:49:38.177Z,4.15
2023-04-22T15:52:12.720Z,3.88
2023-04-22T15:54:39.868Z,3.30
2023-04-22T15:57:07.128Z,4.40
2023-04-22T15:59:41.069Z,3.60
2023-04-22T16:02:10.004Z,3.15
2023-04-22T16:04:37.482Z,3.13
2023-04-22T16:07:12.493Z,3.78
2023-04-22T16:09:41.218Z,3.55
2023-04-22T16:12:08.496Z,4.10
2023-04-22T16:14:42.485Z,3.40
2023-04-22T16:17:16.454Z,3.17
2023-04-22T16:19:43.956Z,3.42
2023-04-22T16:24:44.602Z,3.78
2023-04-22T16:27:16.627Z,3.33
2023-04-22T16:29:50.627Z,3.08
2023-04-22T16:32:17.752Z,2.97
2023-04-22T16:34:44.904Z,3.63
2023-04-22T16:37:18.486Z,3.42
2023-04-22T16:39:45.827Z,3.78
2023-04-22T16:42:19.536Z,3.22
2023-04-22T16:44:46.716Z,3.53
2023-04-22T16:47:27.735Z,2.97
2023-04-22T16:50:01.434Z,3.50
2023-04-22T16:52:35.527Z,3.70
2023-04-22T16:55:02.924Z,3.50
2023-04-22T16:57:30.059Z,3.72
2023-04-22T17:00:03.599Z,3.50
2023-04-22T17:02:31.230Z,3.30
2023-04-22T17:04:58.517Z,3.40
2023-04-22T17:07:32.578Z,3.30
2023-04-22T17:10:06.586Z,3.42
2023-04-22T17:12:33.835Z,3.53
2023-04-22T17:15:01.115Z,3.47
2023-04-22T17:17:34.559Z,3.33
2023-04-22T17:20:02.424Z,3.67
2023-04-22T17:22:36.649Z,3.35
2023-04-22T17:25:03.974Z,3.53
2023-04-22T17:27:31.636Z,4.20
2023-04-22T17:30:05.807Z,3.70
2023-04-22T17:32:33.035Z,3.80
2023-04-22T17:35:06.765Z,3.80
2023-04-22T17:37:33.989Z,3.78
2023-04-22T17:40:01.168Z,4.18
2023-04-22T17:42:44.702Z,4.10
2023-04-22T17:45:12.827Z,3.85
2023-04-22T17:47:46.864Z,3.65
2023-04-22T17:50:20.804Z,4.00
2023-04-22T17:52:54.675Z,4.25
2023-04-22T17:55:21.858Z,3.88
2023-04-22T17:57:48.953Z,4.20
2023-04-22T18:00:23.532Z,4.00
2023-04-22T18:02:51.177Z,3.88
2023-04-22T18:05:25.672Z,3.70
2023-04-22T18:07:57.590Z,3.45
2023-04-22T18:10:24.865Z,3.78
2023-04-22T18:12:58.672Z,3.60
2023-04-22T18:15:25.894Z,3.40
2023-04-22T18:17:59.675Z,3.92
2023-04-22T18:20:26.968Z,3.65
2023-04-22T18:22:56.301Z,4.25
2023-04-22T18:25:30.552Z,3.70
2023-04-22T18:27:58.009Z,4.30
2023-04-22T18:30:32.770Z,3.78
2023-04-22T18:33:00.388Z,4.22
2023-04-22T18:35:27.662Z,3.47
2023-04-22T18:38:01.539Z,3.60
2023-04-22T18:40:28.694Z,3.92
2023-04-22T18:43:02.648Z,3.80
2023-04-22T18:45:29.835Z,3.75
2023-04-22T18:48:09.831Z,3.95
2023-04-22T18:50:37.022Z,3.83
2023-04-22T18:53:04.111Z,3.90
2023-04-22T18:55:37.583Z,3.83
2023-04-22T18:58:04.896Z,4.15
2023-04-22T19:00:38.675Z,3.58
2023-04-22T19:03:06.867Z,4.38
2023-04-22T19:05:34.139Z,4.20
2023-04-22T19:08:07.580Z,3.88
2023-04-22T19:10:34.754Z,4.10
2023-04-22T19:13:15.846Z,3.65
2023-04-22T19:15:50.017Z,3.90
2023-04-22T19:18:23.805Z,4.13
2023-04-22T19:20:51.063Z,4.43
2023-04-22T19:23:18.302Z,4.45
2023-04-22T19:25:52.684Z,4.20
2023-04-22T19:28:19.941Z,4.55
2023-04-22T19:30:47.101Z,3.72
2023-04-22T19:33:21.631Z,4.22
2023-04-22T19:35:49.025Z,4.00
2023-04-22T19:38:25.785Z,4.03
2023-04-22T19:40:53.065Z,3.97
2023-04-22T19:43:21.846Z,4.43
2023-04-22T19:45:55.553Z,4.38
2023-04-22T19:48:29.567Z,4.68
2023-04-22T19:51:10.720Z,4.50
2023-04-22T19:53:38.668Z,4.65
2023-04-22T19:56:06.230Z,4.30
2023-04-22T19:58:40.596Z,4.00
2023-04-22T20:01:08.882Z,4.13
2023-04-22T20:03:36.349Z,4.78
2023-04-22T20:06:10.548Z,4.32
2023-04-22T20:08:41.793Z,4.75
2023-04-22T20:11:18.608Z,4.43
2023-04-22T20:13:47.894Z,4.63
2023-04-22T20:16:15.477Z,3.95
2023-04-22T20:18:49.720Z,3.85
2023-04-22T20:21:17.343Z,4.40
2023-04-22T20:26:18.565Z,4.05
2023-04-22T20:28:53.556Z,4.38
2023-04-22T20:31:23.145Z,4.07
2023-04-22T20:33:50.971Z,4.63
2023-04-22T20:38:54.790Z,4.70
2023-04-22T20:41:29.692Z,4.55
2023-04-22T20:43:57.564Z,5.10
2023-04-22T20:46:24.888Z,4.18
2023-04-22T20:48:58.738Z,4.50
2023-04-22T20:51:26.114Z,4.55
2023-04-22T20:53:54.994Z,4.45
2023-04-22T20:56:28.651Z,4.40
2023-04-22T20:58:55.860Z,4.63
2023-04-22T21:01:29.652Z,4.90
2023-04-22T21:04:00.105Z,4.60
2023-04-22T21:06:34.611Z,4.68
2023-04-22T21:09:02.090Z,4.95
2023-04-22T21:11:36.625Z,4.72
2023-04-22T21:14:03.809Z,4.82
2023-04-22T21:16:31.284Z,5.07
2023-04-22T21:19:07.911Z,4.80
2023-04-22T21:21:35.120Z,4.60
2023-04-22T21:24:02.789Z,4.57
2023-04-22T21:29:10.545Z,4.63
2023-04-22T21:31:37.930Z,4.65
2023-04-22T21:34:14.560Z,4.82
2023-04-22T21:36:41.705Z,4.78
2023-04-22T21:39:15.553Z,4.68
2023-04-22T21:41:42.919Z,4.78
2023-04-22T21:44:10.290Z,4.80
2023-04-22T21:46:43.735Z,5.22
2023-04-22T21:49:18.375Z,5.05
2023-04-22T21:51:52.710Z,5.13
2023-04-22T21:54:19.843Z,4.85
2023-04-22T21:56:47.041Z,5.13
2023-04-22T21:59:20.635Z,5.20
2023-04-22T22:01:47.918Z,5.20
2023-04-22T22:04:21.961Z,4.32
2023-04-22T22:06:49.385Z,4.38
2023-04-22T22:09:16.659Z,4.40
2023-04-22T22:11:50.607Z,4.30
2023-04-22T22:14:17.831Z,4.53
2023-04-22T22:16:51.772Z,4.55
2023-04-22T22:19:20.066Z,4.43
2023-04-22T22:21:47.151Z,5.55
2023-04-22T22:24:20.712Z,4.00
2023-04-22T22:26:48.094Z,5.47
2023-04-22T22:29:21.964Z,5.03
2023-04-22T22:31:49.221Z,5.35
2023-04-22T22:34:16.318Z,5.05
2023-04-22T22:36:49.597Z,4.70
2023-04-22T22:39:17.924Z,4.40
2023-04-22T22:41:51.858Z,4.30
2023-04-22T22:44:19.049Z,4.30
2023-04-22T22:46:46.154Z,5.47
2023-04-22T22:49:20.604Z,4.10
2023-04-22T22:51:54.545Z,4.72
2023-04-22T22:54:28.890Z,4.18
2023-04-22T22:56:58.405Z,4.25
2023-04-22T22:59:25.571Z,4.38
2023-04-22T23:01:59.629Z,4.00
2023-04-22T23:04:27.473Z,4.07
2023-04-22T23:07:01.653Z,3.65
2023-04-22T23:09:28.807Z,3.45
2023-04-22T23:12:03.664Z,3.70
2023-04-22T23:14:32.828Z,3.78
2023-04-22T23:17:06.965Z,3.05
2023-04-22T23:19:34.509Z,2.90
2023-04-22T23:22:01.858Z,3.20
2023-04-22T23:24:35.645Z,3.40
2023-04-22T23:27:02.992Z,3.47
2023-04-22T23:29:37.656Z,3.20
2023-04-22T23:32:05.795Z,3.55
2023-04-22T23:34:35.007Z,3.30
2023-04-22T23:37:12.757Z,3.35
2023-04-22T23:39:41.878Z,3.10
2023-04-22T23:42:15.885Z,3.03
2023-04-22T23:44:43.236Z,2.78
2023-04-22T23:49:44.663Z,3.03
2023-04-22T23:52:12.977Z,2.47
2023-04-22T23:54:47.655Z,2.67
2023-04-22T23:57:14.854Z,2.83
2023-04-22T23:59:42.379Z,2.70
